Jessup, Pennsylvania
Current Conditions -  °F | °C
As of 8:43 PM on Wednesday 22 Oct 2014 (Local Time) from KAVP Reporting Station
Light Rain Light Rain  
Wind Chill: 50°   Ceiling: 1400
Heat Index: 50°   Visibility: 7mi
Dew Point: 45°   Wind: 8mph
Humidity: 83%   Direction: 360°N
Pressure: 29.95"   Gusts: NA
Location:  41.47°N, 75.56°W
Report Text: KAVP 230043Z 36007KT 7SM -RA OVC014 10/07 A2995 RMK AO2 RAB02E12B29 P0001 T01000072
Loading
Personal Weather Stations






























Interactive Weather Map
Tropical Storm Tracking
New forecast layout! Learn more

10-Day Weather Forecast

Advertisements
Track Severe Weather on mobile